sensor_id;sensor_type;location;lat;lon;timestamp;temperature;humidity
3644;DHT22;1838;50.742;7.158;2023-08-24T00:01:20;19.50;99.90
3644;DHT22;1838;50.742;7.158;2023-08-24T00:03:45;19.40;99.90
3644;DHT22;1838;50.742;7.158;2023-08-24T00:06:14;19.40;99.90
3644;DHT22;1838;50.742;7.158;2023-08-24T00:08:40;19.40;99.90
3644;DHT22;1838;50.742;7.158;2023-08-24T00:11:06;19.40;99.90
3644;DHT22;1838;50.742;7.158;2023-08-24T00:13:33;19.40;99.90
3644;DHT22;1838;50.742;7.158;2023-08-24T00:15:58;19.40;99.90
3644;DHT22;1838;50.742;7.158;2023-08-24T00:18:24;19.30;99.90
3644;DHT22;1838;50.742;7.158;2023-08-24T00:20:50;19.20;99.90
3644;DHT22;1838;50.742;7.158;2023-08-24T00:23:17;19.20;99.90
3644;DHT22;1838;50.742;7.158;2023-08-24T00:25:42;19.10;99.90
3644;DHT22;1838;50.742;7.158;2023-08-24T00:28:08;19.20;99.90
3644;DHT22;1838;50.742;7.158;2023-08-24T00:30:34;19.10;99.90
3644;DHT22;1838;50.742;7.158;2023-08-24T00:32:59;19.00;99.90
3644;DHT22;1838;50.742;7.158;2023-08-24T00:35:25;18.90;99.90
3644;DHT22;1838;50.742;7.158;2023-08-24T00:37:51;18.90;99.90
3644;DHT22;1838;50.742;7.158;2023-08-24T00:40:16;18.90;99.90
3644;DHT22;1838;50.742;7.158;2023-08-24T00:42:44;19.00;99.90
3644;DHT22;1838;50.742;7.158;2023-08-24T00:45:11;19.00;99.90
3644;DHT22;1838;50.742;7.158;2023-08-24T00:47:39;19.00;99.90
3644;DHT22;1838;50.742;7.158;2023-08-24T00:50:06;19.10;99.90
3644;DHT22;1838;50.742;7.158;2023-08-24T00:52:32;19.10;99.90
3644;DHT22;1838;50.742;7.158;2023-08-24T00:55:01;19.00;99.90
3644;DHT22;1838;50.742;7.158;2023-08-24T00:57:28;19.00;99.90
3644;DHT22;1838;50.742;7.158;2023-08-24T00:59:54;18.90;99.90
3644;DHT22;1838;50.742;7.158;2023-08-24T01:02:20;18.90;99.90
3644;DHT22;1838;50.742;7.158;2023-08-24T01:04:46;18.90;99.90
3644;DHT22;1838;50.742;7.158;2023-08-24T01:07:12;18.90;99.90
3644;DHT22;1838;50.742;7.158;2023-08-24T01:09:38;18.90;99.90
3644;DHT22;1838;50.742;7.158;2023-08-24T01:14:57;18.80;99.90
3644;DHT22;1838;50.742;7.158;2023-08-24T01:17:25;18.70;99.90
3644;DHT22;1838;50.742;7.158;2023-08-24T01:19:54;18.50;99.90
3644;DHT22;1838;50.742;7.158;2023-08-24T01:22:33;18.30;99.90
3644;DHT22;1838;50.742;7.158;2023-08-24T01:25:29;18.40;99.90
3644;DHT22;1838;50.742;7.158;2023-08-24T01:27:59;18.40;99.90
3644;DHT22;1838;50.742;7.158;2023-08-24T01:30:25;18.40;99.90
3644;DHT22;1838;50.742;7.158;2023-08-24T01:32:51;18.40;99.90
3644;DHT22;1838;50.742;7.158;2023-08-24T01:35:17;18.30;99.90
3644;DHT22;1838;50.742;7.158;2023-08-24T01:37:42;18.40;99.90
3644;DHT22;1838;50.742;7.158;2023-08-24T01:40:19;18.40;99.90
3644;DHT22;1838;50.742;7.158;2023-08-24T01:43:05;18.50;99.90
3644;DHT22;1838;50.742;7.158;2023-08-24T01:45:34;18.40;99.90
3644;DHT22;1838;50.742;7.158;2023-08-24T01:48:02;18.50;99.90
3644;DHT22;1838;50.742;7.158;2023-08-24T01:50:29;18.60;99.90
3644;DHT22;1838;50.742;7.158;2023-08-24T01:52:54;18.50;99.90
3644;DHT22;1838;50.742;7.158;2023-08-24T01:55:20;18.40;99.90
3644;DHT22;1838;50.742;7.158;2023-08-24T01:57:47;18.40;99.90
3644;DHT22;1838;50.742;7.158;2023-08-24T02:00:13;18.20;99.90
3644;DHT22;1838;50.742;7.158;2023-08-24T02:02:39;18.30;99.90
3644;DHT22;1838;50.742;7.158;2023-08-24T02:05:05;18.30;99.90
3644;DHT22;1838;50.742;7.158;2023-08-24T02:07:30;18.40;99.90
3644;DHT22;1838;50.742;7.158;2023-08-24T02:09:56;18.40;99.90
3644;DHT22;1838;50.742;7.158;2023-08-24T02:12:22;18.50;99.90
3644;DHT22;1838;50.742;7.158;2023-08-24T02:14:47;18.40;99.90
3644;DHT22;1838;50.742;7.158;2023-08-24T02:17:13;18.40;99.90
3644;DHT22;1838;50.742;7.158;2023-08-24T02:19:39;18.40;99.90
3644;DHT22;1838;50.742;7.158;2023-08-24T02:22:06;18.30;99.90
3644;DHT22;1838;50.742;7.158;2023-08-24T02:24:32;18.20;99.90
3644;DHT22;1838;50.742;7.158;2023-08-24T02:26:57;18.10;99.90
3644;DHT22;1838;50.742;7.158;2023-08-24T02:29:23;18.10;99.90
3644;DHT22;1838;50.742;7.158;2023-08-24T02:31:52;18.20;99.90
3644;DHT22;1838;50.742;7.158;2023-08-24T02:34:18;18.30;99.90
3644;DHT22;1838;50.742;7.158;2023-08-24T02:36:43;18.40;99.90
3644;DHT22;1838;50.742;7.158;2023-08-24T02:39:09;18.40;99.90
3644;DHT22;1838;50.742;7.158;2023-08-24T02:41:35;18.40;99.90
3644;DHT22;1838;50.742;7.158;2023-08-24T02:44:01;18.50;99.90
3644;DHT22;1838;50.742;7.158;2023-08-24T02:46:27;18.40;99.90
3644;DHT22;1838;50.742;7.158;2023-08-24T02:48:52;18.40;99.90
3644;DHT22;1838;50.742;7.158;2023-08-24T02:51:21;18.50;99.90
3644;DHT22;1838;50.742;7.158;2023-08-24T02:53:46;18.40;99.90
3644;DHT22;1838;50.742;7.158;2023-08-24T02:56:12;18.40;99.90
3644;DHT22;1838;50.742;7.158;2023-08-24T02:58:37;18.40;99.90
3644;DHT22;1838;50.742;7.158;2023-08-24T03:01:06;18.40;99.90
3644;DHT22;1838;50.742;7.158;2023-08-24T03:03:33;18.50;99.90
3644;DHT22;1838;50.742;7.158;2023-08-24T03:06:01;18.60;99.90
3644;DHT22;1838;50.742;7.158;2023-08-24T03:08:28;18.70;99.90
3644;DHT22;1838;50.742;7.158;2023-08-24T03:10:53;18.80;99.90
3644;DHT22;1838;50.742;7.158;2023-08-24T03:13:19;18.80;99.90
3644;DHT22;1838;50.742;7.158;2023-08-24T03:15:45;18.90;99.90
3644;DHT22;1838;50.742;7.158;2023-08-24T03:18:15;18.80;99.90
3644;DHT22;1838;50.742;7.158;2023-08-24T03:20:40;18.80;99.90
3644;DHT22;1838;50.742;7.158;2023-08-24T03:23:06;18.70;99.90
3644;DHT22;1838;50.742;7.158;2023-08-24T03:25:36;18.80;99.90
3644;DHT22;1838;50.742;7.158;2023-08-24T03:28:02;18.80;99.90
3644;DHT22;1838;50.742;7.158;2023-08-24T03:30:28;18.80;99.90
3644;DHT22;1838;50.742;7.158;2023-08-24T03:32:53;18.80;99.90
3644;DHT22;1838;50.742;7.158;2023-08-24T03:35:19;18.70;99.90
3644;DHT22;1838;50.742;7.158;2023-08-24T03:37:45;18.80;99.90
3644;DHT22;1838;50.742;7.158;2023-08-24T03:40:11;18.80;99.90
3644;DHT22;1838;50.742;7.158;2023-08-24T03:42:37;18.80;99.90
3644;DHT22;1838;50.742;7.158;2023-08-24T03:45:02;18.70;99.90
3644;DHT22;1838;50.742;7.158;2023-08-24T03:47:28;18.80;99.90
3644;DHT22;1838;50.742;7.158;2023-08-24T03:49:54;18.80;99.90
3644;DHT22;1838;50.742;7.158;2023-08-24T03:52:20;18.90;99.90
3644;DHT22;1838;50.742;7.158;2023-08-24T03:54:46;19.00;99.90
3644;DHT22;1838;50.742;7.158;2023-08-24T03:57:11;19.10;99.90
3644;DHT22;1838;50.742;7.158;2023-08-24T03:59:37;19.10;99.90
3644;DHT22;1838;50.742;7.158;2023-08-24T04:02:02;19.10;99.90
3644;DHT22;1838;50.742;7.158;2023-08-24T04:04:31;19.20;99.90
3644;DHT22;1838;50.742;7.158;2023-08-24T04:06:57;19.20;99.90
3644;DHT22;1838;50.742;7.158;2023-08-24T04:09:22;19.20;99.90
3644;DHT22;1838;50.742;7.158;2023-08-24T04:11:48;19.30;99.90
3644;DHT22;1838;50.742;7.158;2023-08-24T04:14:13;19.40;99.90
3644;DHT22;1838;50.742;7.158;2023-08-24T04:16:39;19.40;99.90
3644;DHT22;1838;50.742;7.158;2023-08-24T04:19:05;19.50;99.90
3644;DHT22;1838;50.742;7.158;2023-08-24T04:21:30;19.50;99.90
3644;DHT22;1838;50.742;7.158;2023-08-24T04:23:56;19.50;99.90
3644;DHT22;1838;50.742;7.158;2023-08-24T04:26:21;19.50;99.90
3644;DHT22;1838;50.742;7.158;2023-08-24T04:28:47;19.40;99.90
3644;DHT22;1838;50.742;7.158;2023-08-24T04:31:12;19.40;99.90
3644;DHT22;1838;50.742;7.158;2023-08-24T04:33:38;19.40;99.90
3644;DHT22;1838;50.742;7.158;2023-08-24T04:36:04;19.40;99.90
3644;DHT22;1838;50.742;7.158;2023-08-24T04:38:29;19.40;99.90
3644;DHT22;1838;50.742;7.158;2023-08-24T04:40:55;19.40;99.90
3644;DHT22;1838;50.742;7.158;2023-08-24T04:43:23;19.40;99.90
3644;DHT22;1838;50.742;7.158;2023-08-24T04:45:50;19.50;99.90
3644;DHT22;1838;50.742;7.158;2023-08-24T04:48:21;19.50;99.90
3644;DHT22;1838;50.742;7.158;2023-08-24T04:50:47;19.50;99.90
3644;DHT22;1838;50.742;7.158;2023-08-24T04:53:18;19.50;99.90
3644;DHT22;1838;50.742;7.158;2023-08-24T04:55:44;19.60;99.90
3644;DHT22;1838;50.742;7.158;2023-08-24T04:58:10;19.60;99.90
3644;DHT22;1838;50.742;7.158;2023-08-24T05:00:37;19.50;99.90
3644;DHT22;1838;50.742;7.158;2023-08-24T05:03:04;19.50;99.90
3644;DHT22;1838;50.742;7.158;2023-08-24T05:05:34;19.40;99.90
3644;DHT22;1838;50.742;7.158;2023-08-24T05:08:00;19.30;99.90
3644;DHT22;1838;50.742;7.158;2023-08-24T05:10:29;19.30;99.90
3644;DHT22;1838;50.742;7.158;2023-08-24T05:12:55;19.20;99.90
3644;DHT22;1838;50.742;7.158;2023-08-24T05:15:20;19.10;99.90
3644;DHT22;1838;50.742;7.158;2023-08-24T05:17:46;19.00;99.90
3644;DHT22;1838;50.742;7.158;2023-08-24T05:20:11;19.00;99.90
3644;DHT22;1838;50.742;7.158;2023-08-24T05:22:37;18.90;99.90
3644;DHT22;1838;50.742;7.158;2023-08-24T05:25:03;18.90;99.90
3644;DHT22;1838;50.742;7.158;2023-08-24T05:27:30;19.00;99.90
3644;DHT22;1838;50.742;7.158;2023-08-24T05:29:55;19.00;99.90
3644;DHT22;1838;50.742;7.158;2023-08-24T05:32:21;19.20;99.90
3644;DHT22;1838;50.742;7.158;2023-08-24T05:34:46;19.30;99.90
3644;DHT22;1838;50.742;7.158;2023-08-24T05:37:12;19.30;99.90
3644;DHT22;1838;50.742;7.158;2023-08-24T05:39:37;19.30;99.90
3644;DHT22;1838;50.742;7.158;2023-08-24T05:42:04;19.30;99.90
3644;DHT22;1838;50.742;7.158;2023-08-24T05:44:29;19.30;99.90
3644;DHT22;1838;50.742;7.158;2023-08-24T05:46:55;19.30;99.90
3644;DHT22;1838;50.742;7.158;2023-08-24T05:49:20;19.40;99.90
3644;DHT22;1838;50.742;7.158;2023-08-24T05:51:46;19.50;99.90
3644;DHT22;1838;50.742;7.158;2023-08-24T05:54:11;19.60;99.90
3644;DHT22;1838;50.742;7.158;2023-08-24T05:56:38;19.60;99.90
3644;DHT22;1838;50.742;7.158;2023-08-24T05:59:04;19.50;99.90
3644;DHT22;1838;50.742;7.158;2023-08-24T06:01:29;19.40;99.90
3644;DHT22;1838;50.742;7.158;2023-08-24T06:03:55;19.50;99.90
3644;DHT22;1838;50.742;7.158;2023-08-24T06:06:20;19.50;99.90
3644;DHT22;1838;50.742;7.158;2023-08-24T06:08:46;19.60;99.90
3644;DHT22;1838;50.742;7.158;2023-08-24T06:11:11;19.60;99.90
3644;DHT22;1838;50.742;7.158;2023-08-24T06:13:37;19.70;99.90
3644;DHT22;1838;50.742;7.158;2023-08-24T06:16:03;19.60;99.90
3644;DHT22;1838;50.742;7.158;2023-08-24T06:18:28;19.60;99.90
3644;DHT22;1838;50.742;7.158;2023-08-24T06:20:54;19.60;99.90
3644;DHT22;1838;50.742;7.158;2023-08-24T06:23:20;19.60;99.90
3644;DHT22;1838;50.742;7.158;2023-08-24T06:25:46;19.60;99.90
3644;DHT22;1838;50.742;7.158;2023-08-24T06:28:12;19.60;99.90
3644;DHT22;1838;50.742;7.158;2023-08-24T06:30:39;19.70;99.90
3644;DHT22;1838;50.742;7.158;2023-08-24T06:33:05;19.80;99.90
3644;DHT22;1838;50.742;7.158;2023-08-24T06:35:33;19.80;99.90
3644;DHT22;1838;50.742;7.158;2023-08-24T06:37:58;19.90;99.90
3644;DHT22;1838;50.742;7.158;2023-08-24T06:40:24;20.00;99.90
3644;DHT22;1838;50.742;7.158;2023-08-24T06:42:49;20.00;99.90
3644;DHT22;1838;50.742;7.158;2023-08-24T06:45:15;20.10;99.90
3644;DHT22;1838;50.742;7.158;2023-08-24T06:47:42;20.30;99.90
3644;DHT22;1838;50.742;7.158;2023-08-24T06:50:08;20.70;99.90
3644;DHT22;1838;50.742;7.158;2023-08-24T06:52:33;21.20;99.90
3644;DHT22;1838;50.742;7.158;2023-08-24T06:54:59;21.60;99.90
3644;DHT22;1838;50.742;7.158;2023-08-24T06:57:26;21.90;99.90
3644;DHT22;1838;50.742;7.158;2023-08-24T06:59:51;22.30;99.90
3644;DHT22;1838;50.742;7.158;2023-08-24T07:02:17;22.50;99.90
3644;DHT22;1838;50.742;7.158;2023-08-24T07:04:45;22.70;99.90
3644;DHT22;1838;50.742;7.158;2023-08-24T07:07:11;23.00;99.90
3644;DHT22;1838;50.742;7.158;2023-08-24T07:09:37;23.40;99.90
3644;DHT22;1838;50.742;7.158;2023-08-24T07:12:03;23.90;99.90
3644;DHT22;1838;50.742;7.158;2023-08-24T07:14:31;24.50;99.90
3644;DHT22;1838;50.742;7.158;2023-08-24T07:16:57;25.00;99.90
3644;DHT22;1838;50.742;7.158;2023-08-24T07:19:22;25.40;99.90
3644;DHT22;1838;50.742;7.158;2023-08-24T07:21:48;26.00;99.90
3644;DHT22;1838;50.742;7.158;2023-08-24T07:24:14;26.50;99.90
3644;DHT22;1838;50.742;7.158;2023-08-24T07:26:40;26.70;99.90
3644;DHT22;1838;50.742;7.158;2023-08-24T07:29:07;27.00;99.90
3644;DHT22;1838;50.742;7.158;2023-08-24T07:31:32;27.20;99.90
3644;DHT22;1838;50.742;7.158;2023-08-24T07:33:58;27.40;99.90
3644;DHT22;1838;50.742;7.158;2023-08-24T07:36:24;27.40;99.90
3644;DHT22;1838;50.742;7.158;2023-08-24T07:38:49;27.40;99.90
3644;DHT22;1838;50.742;7.158;2023-08-24T07:41:15;27.30;99.90
3644;DHT22;1838;50.742;7.158;2023-08-24T07:43:42;27.00;99.90
3644;DHT22;1838;50.742;7.158;2023-08-24T07:46:08;26.80;99.90
3644;DHT22;1838;50.742;7.158;2023-08-24T07:48:33;26.60;99.90
3644;DHT22;1838;50.742;7.158;2023-08-24T07:50:59;26.80;99.90
3644;DHT22;1838;50.742;7.158;2023-08-24T07:53:24;27.20;99.90
3644;DHT22;1838;50.742;7.158;2023-08-24T07:55:50;27.60;99.90
3644;DHT22;1838;50.742;7.158;2023-08-24T07:58:16;28.10;99.90
3644;DHT22;1838;50.742;7.158;2023-08-24T08:00:41;28.80;99.90
3644;DHT22;1838;50.742;7.158;2023-08-24T08:03:07;29.40;99.90
3644;DHT22;1838;50.742;7.158;2023-08-24T08:05:32;29.90;99.90
3644;DHT22;1838;50.742;7.158;2023-08-24T08:07:58;30.40;99.90
3644;DHT22;1838;50.742;7.158;2023-08-24T08:10:23;30.80;99.90
3644;DHT22;1838;50.742;7.158;2023-08-24T08:12:49;31.20;99.90
3644;DHT22;1838;50.742;7.158;2023-08-24T08:15:14;31.60;99.90
3644;DHT22;1838;50.742;7.158;2023-08-24T08:17:40;31.80;99.90
3644;DHT22;1838;50.742;7.158;2023-08-24T08:20:06;32.00;99.90
3644;DHT22;1838;50.742;7.158;2023-08-24T08:22:31;32.30;99.90
3644;DHT22;1838;50.742;7.158;2023-08-24T08:25:04;32.60;99.90
3644;DHT22;1838;50.742;7.158;2023-08-24T08:27:30;32.60;99.90
3644;DHT22;1838;50.742;7.158;2023-08-24T08:29:55;32.70;99.90
3644;DHT22;1838;50.742;7.158;2023-08-24T08:32:21;33.00;99.20
3644;DHT22;1838;50.742;7.158;2023-08-24T08:34:47;33.10;99.20
3644;DHT22;1838;50.742;7.158;2023-08-24T08:37:12;33.20;98.00
3644;DHT22;1838;50.742;7.158;2023-08-24T08:39:38;33.10;96.70
3644;DHT22;1838;50.742;7.158;2023-08-24T08:42:04;33.30;98.10
3644;DHT22;1838;50.742;7.158;2023-08-24T08:44:30;33.50;97.20
3644;DHT22;1838;50.742;7.158;2023-08-24T08:46:57;33.80;96.40
3644;DHT22;1838;50.742;7.158;2023-08-24T08:49:23;33.80;94.90
3644;DHT22;1838;50.742;7.158;2023-08-24T08:51:49;33.90;94.60
3644;DHT22;1838;50.742;7.158;2023-08-24T08:54:16;34.30;93.40
3644;DHT22;1838;50.742;7.158;2023-08-24T08:56:42;34.60;93.10
3644;DHT22;1838;50.742;7.158;2023-08-24T08:59:09;34.90;92.70
3644;DHT22;1838;50.742;7.158;2023-08-24T09:01:37;35.00;91.40
3644;DHT22;1838;50.742;7.158;2023-08-24T09:04:04;34.70;84.30
3644;DHT22;1838;50.742;7.158;2023-08-24T09:06:31;34.00;86.50
3644;DHT22;1838;50.742;7.158;2023-08-24T09:08:57;33.40;90.10
3644;DHT22;1838;50.742;7.158;2023-08-24T09:11:23;33.10;91.50
3644;DHT22;1838;50.742;7.158;2023-08-24T09:13:49;33.10;91.10
3644;DHT22;1838;50.742;7.158;2023-08-24T09:16:14;33.00;93.00
3644;DHT22;1838;50.742;7.158;2023-08-24T09:18:43;33.00;92.30
3644;DHT22;1838;50.742;7.158;2023-08-24T09:21:10;33.20;92.70
3644;DHT22;1838;50.742;7.158;2023-08-24T09:23:37;33.40;91.40
3644;DHT22;1838;50.742;7.158;2023-08-24T09:26:04;33.60;91.80
3644;DHT22;1838;50.742;7.158;2023-08-24T09:28:30;33.80;90.30
3644;DHT22;1838;50.742;7.158;2023-08-24T09:30:56;33.70;91.50
3644;DHT22;1838;50.742;7.158;2023-08-24T09:33:21;33.60;90.10
3644;DHT22;1838;50.742;7.158;2023-08-24T09:35:54;33.70;90.30
3644;DHT22;1838;50.742;7.158;2023-08-24T09:38:27;33.50;90.00
3644;DHT22;1838;50.742;7.158;2023-08-24T09:40:54;33.20;90.30
3644;DHT22;1838;50.742;7.158;2023-08-24T09:43:21;32.90;91.10
3644;DHT22;1838;50.742;7.158;2023-08-24T09:45:54;32.70;92.60
3644;DHT22;1838;50.742;7.158;2023-08-24T09:48:21;32.80;92.70
3644;DHT22;1838;50.742;7.158;2023-08-24T09:50:51;32.70;92.20
3644;DHT22;1838;50.742;7.158;2023-08-24T09:53:18;32.90;91.70
3644;DHT22;1838;50.742;7.158;2023-08-24T09:55:48;32.90;91.70
3644;DHT22;1838;50.742;7.158;2023-08-24T09:58:17;32.90;91.10
3644;DHT22;1838;50.742;7.158;2023-08-24T10:00:46;33.00;91.10
3644;DHT22;1838;50.742;7.158;2023-08-24T10:03:15;33.20;90.90
3644;DHT22;1838;50.742;7.158;2023-08-24T10:05:44;33.50;92.30
3644;DHT22;1838;50.742;7.158;2023-08-24T10:08:10;33.80;91.30
3644;DHT22;1838;50.742;7.158;2023-08-24T10:10:37;33.80;89.90
3644;DHT22;1838;50.742;7.158;2023-08-24T10:13:17;34.00;86.50
3644;DHT22;1838;50.742;7.158;2023-08-24T10:15:45;33.80;81.50
3644;DHT22;1838;50.742;7.158;2023-08-24T10:18:13;33.00;81.10
3644;DHT22;1838;50.742;7.158;2023-08-24T10:20:39;32.60;86.60
3644;DHT22;1838;50.742;7.158;2023-08-24T10:23:05;32.20;82.80
3644;DHT22;1838;50.742;7.158;2023-08-24T10:25:32;32.00;87.10
3644;DHT22;1838;50.742;7.158;2023-08-24T10:27:58;31.60;85.30
3644;DHT22;1838;50.742;7.158;2023-08-24T10:30:25;31.30;88.40
3644;DHT22;1838;50.742;7.158;2023-08-24T10:32:51;31.20;90.50
3644;DHT22;1838;50.742;7.158;2023-08-24T10:35:19;31.10;90.10
3644;DHT22;1838;50.742;7.158;2023-08-24T10:37:46;31.00;90.70
3644;DHT22;1838;50.742;7.158;2023-08-24T10:40:12;30.90;90.30
3644;DHT22;1838;50.742;7.158;2023-08-24T10:42:45;30.80;91.20
3644;DHT22;1838;50.742;7.158;2023-08-24T10:45:13;30.80;91.40
3644;DHT22;1838;50.742;7.158;2023-08-24T10:47:45;30.80;91.80
3644;DHT22;1838;50.742;7.158;2023-08-24T10:50:11;30.80;91.20
3644;DHT22;1838;50.742;7.158;2023-08-24T10:52:37;30.80;92.50
3644;DHT22;1838;50.742;7.158;2023-08-24T10:55:05;30.90;92.70
3644;DHT22;1838;50.742;7.158;2023-08-24T10:57:55;31.00;92.30
3644;DHT22;1838;50.742;7.158;2023-08-24T11:00:21;31.00;91.70
3644;DHT22;1838;50.742;7.158;2023-08-24T11:02:49;31.10;92.40
3644;DHT22;1838;50.742;7.158;2023-08-24T11:05:31;30.70;91.60
3644;DHT22;1838;50.742;7.158;2023-08-24T11:08:05;30.70;93.20
3644;DHT22;1838;50.742;7.158;2023-08-24T11:13:14;30.90;93.10
3644;DHT22;1838;50.742;7.158;2023-08-24T11:15:44;30.90;93.70
3644;DHT22;1838;50.742;7.158;2023-08-24T11:18:24;30.90;93.60
3644;DHT22;1838;50.742;7.158;2023-08-24T11:21:00;30.90;91.70
3644;DHT22;1838;50.742;7.158;2023-08-24T11:23:30;30.70;93.10
3644;DHT22;1838;50.742;7.158;2023-08-24T11:25:58;30.70;94.40
3644;DHT22;1838;50.742;7.158;2023-08-24T11:28:26;30.90;93.40
3644;DHT22;1838;50.742;7.158;2023-08-24T11:30:52;31.00;92.90
3644;DHT22;1838;50.742;7.158;2023-08-24T11:33:29;31.00;92.70
3644;DHT22;1838;50.742;7.158;2023-08-24T11:35:55;31.10;92.70
3644;DHT22;1838;50.742;7.158;2023-08-24T11:38:20;30.90;91.60
3644;DHT22;1838;50.742;7.158;2023-08-24T11:40:46;30.70;91.80
3644;DHT22;1838;50.742;7.158;2023-08-24T11:43:12;30.70;92.20
3644;DHT22;1838;50.742;7.158;2023-08-24T11:45:37;30.80;92.00
3644;DHT22;1838;50.742;7.158;2023-08-24T11:48:06;30.60;91.90
3644;DHT22;1838;50.742;7.158;2023-08-24T11:50:32;30.60;92.40
3644;DHT22;1838;50.742;7.158;2023-08-24T11:53:00;30.50;91.60
3644;DHT22;1838;50.742;7.158;2023-08-24T11:55:26;30.50;92.10
3644;DHT22;1838;50.742;7.158;2023-08-24T11:57:52;30.60;93.90
3644;DHT22;1838;50.742;7.158;2023-08-24T12:00:21;30.70;94.30
3644;DHT22;1838;50.742;7.158;2023-08-24T12:02:48;31.00;93.70
3644;DHT22;1838;50.742;7.158;2023-08-24T12:05:21;31.10;92.90
3644;DHT22;1838;50.742;7.158;2023-08-24T12:07:47;31.00;93.20
3644;DHT22;1838;50.742;7.158;2023-08-24T12:10:12;31.20;92.80
3644;DHT22;1838;50.742;7.158;2023-08-24T12:12:38;31.20;93.00
3644;DHT22;1838;50.742;7.158;2023-08-24T12:15:04;31.20;93.30
3644;DHT22;1838;50.742;7.158;2023-08-24T12:17:30;31.10;93.60
3644;DHT22;1838;50.742;7.158;2023-08-24T12:20:07;30.90;94.20
3644;DHT22;1838;50.742;7.158;2023-08-24T12:22:36;30.60;95.90
3644;DHT22;1838;50.742;7.158;2023-08-24T12:25:02;30.60;96.50
3644;DHT22;1838;50.742;7.158;2023-08-24T12:27:28;30.70;99.90
3644;DHT22;1838;50.742;7.158;2023-08-24T12:29:53;30.70;99.90
3644;DHT22;1838;50.742;7.158;2023-08-24T12:32:20;30.60;99.90
3644;DHT22;1838;50.742;7.158;2023-08-24T12:34:48;30.50;99.90
3644;DHT22;1838;50.742;7.158;2023-08-24T12:37:13;30.40;99.90
3644;DHT22;1838;50.742;7.158;2023-08-24T12:39:39;30.40;99.90
3644;DHT22;1838;50.742;7.158;2023-08-24T12:42:05;30.20;99.70
3644;DHT22;1838;50.742;7.158;2023-08-24T12:44:31;30.10;99.20
3644;DHT22;1838;50.742;7.158;2023-08-24T12:46:58;30.00;99.90
3644;DHT22;1838;50.742;7.158;2023-08-24T12:49:24;29.80;99.90
3644;DHT22;1838;50.742;7.158;2023-08-24T12:51:49;29.60;99.90
3644;DHT22;1838;50.742;7.158;2023-08-24T12:54:15;29.50;99.90
3644;DHT22;1838;50.742;7.158;2023-08-24T12:56:40;29.30;99.90
3644;DHT22;1838;50.742;7.158;2023-08-24T12:59:06;29.10;99.90
3644;DHT22;1838;50.742;7.158;2023-08-24T13:01:32;28.90;99.90
3644;DHT22;1838;50.742;7.158;2023-08-24T13:03:57;28.70;99.90
3644;DHT22;1838;50.742;7.158;2023-08-24T13:06:23;28.60;99.90
3644;DHT22;1838;50.742;7.158;2023-08-24T13:08:48;28.30;99.90
3644;DHT22;1838;50.742;7.158;2023-08-24T13:11:14;28.10;99.90
3644;DHT22;1838;50.742;7.158;2023-08-24T13:13:39;28.00;99.90
3644;DHT22;1838;50.742;7.158;2023-08-24T13:16:06;27.60;99.90
3644;DHT22;1838;50.742;7.158;2023-08-24T13:18:31;27.50;99.90
3644;DHT22;1838;50.742;7.158;2023-08-24T13:20:57;27.30;99.90
3644;DHT22;1838;50.742;7.158;2023-08-24T13:23:22;27.20;99.90
3644;DHT22;1838;50.742;7.158;2023-08-24T13:25:47;27.10;99.90
3644;DHT22;1838;50.742;7.158;2023-08-24T13:28:13;27.20;99.90
3644;DHT22;1838;50.742;7.158;2023-08-24T13:30:38;27.20;99.90
3644;DHT22;1838;50.742;7.158;2023-08-24T13:33:05;27.10;99.90
3644;DHT22;1838;50.742;7.158;2023-08-24T13:35:32;27.10;99.90
3644;DHT22;1838;50.742;7.158;2023-08-24T13:37:57;27.00;99.90
3644;DHT22;1838;50.742;7.158;2023-08-24T13:40:23;26.80;99.90
3644;DHT22;1838;50.742;7.158;2023-08-24T13:42:48;26.70;99.90
3644;DHT22;1838;50.742;7.158;2023-08-24T13:45:14;26.70;99.90
3644;DHT22;1838;50.742;7.158;2023-08-24T13:47:39;26.50;99.90
3644;DHT22;1838;50.742;7.158;2023-08-24T13:50:05;26.30;99.90
3644;DHT22;1838;50.742;7.158;2023-08-24T13:52:31;26.30;99.90
3644;DHT22;1838;50.742;7.158;2023-08-24T13:54:56;26.20;99.90
3644;DHT22;1838;50.742;7.158;2023-08-24T13:57:22;26.30;99.90
3644;DHT22;1838;50.742;7.158;2023-08-24T13:59:47;26.20;99.90
3644;DHT22;1838;50.742;7.158;2023-08-24T14:02:13;26.10;99.90
3644;DHT22;1838;50.742;7.158;2023-08-24T14:04:39;25.90;99.90
3644;DHT22;1838;50.742;7.158;2023-08-24T14:07:05;25.90;99.90
3644;DHT22;1838;50.742;7.158;2023-08-24T14:09:31;25.80;99.90
3644;DHT22;1838;50.742;7.158;2023-08-24T14:11:56;25.80;99.90
3644;DHT22;1838;50.742;7.158;2023-08-24T14:14:22;26.00;99.90
3644;DHT22;1838;50.742;7.158;2023-08-24T14:16:53;26.00;99.90
3644;DHT22;1838;50.742;7.158;2023-08-24T14:19:19;26.00;99.90
3644;DHT22;1838;50.742;7.158;2023-08-24T14:21:45;26.20;99.90
3644;DHT22;1838;50.742;7.158;2023-08-24T14:24:10;26.20;99.90
3644;DHT22;1838;50.742;7.158;2023-08-24T14:26:36;26.10;99.90
3644;DHT22;1838;50.742;7.158;2023-08-24T14:29:04;26.00;99.90
3644;DHT22;1838;50.742;7.158;2023-08-24T14:31:30;26.00;99.90
3644;DHT22;1838;50.742;7.158;2023-08-24T14:33:56;26.10;99.90
3644;DHT22;1838;50.742;7.158;2023-08-24T14:36:23;26.20;99.90
3644;DHT22;1838;50.742;7.158;2023-08-24T14:38:49;26.20;99.90
3644;DHT22;1838;50.742;7.158;2023-08-24T14:41:15;26.30;99.90
3644;DHT22;1838;50.742;7.158;2023-08-24T14:43:41;26.30;99.90
3644;DHT22;1838;50.742;7.158;2023-08-24T14:46:07;26.20;99.90
3644;DHT22;1838;50.742;7.158;2023-08-24T14:48:33;25.90;99.90
3644;DHT22;1838;50.742;7.158;2023-08-24T14:50:58;26.00;99.90
3644;DHT22;1838;50.742;7.158;2023-08-24T14:53:25;26.10;99.90
3644;DHT22;1838;50.742;7.158;2023-08-24T14:55:52;26.20;99.90
3644;DHT22;1838;50.742;7.158;2023-08-24T14:58:17;26.10;99.90
3644;DHT22;1838;50.742;7.158;2023-08-24T15:00:43;26.00;99.90
3644;DHT22;1838;50.742;7.158;2023-08-24T15:03:11;26.00;99.90
3644;DHT22;1838;50.742;7.158;2023-08-24T15:05:40;26.10;99.90
3644;DHT22;1838;50.742;7.158;2023-08-24T15:08:06;26.00;99.90
3644;DHT22;1838;50.742;7.158;2023-08-24T15:10:31;26.10;99.90
3644;DHT22;1838;50.742;7.158;2023-08-24T15:12:57;26.00;99.90
3644;DHT22;1838;50.742;7.158;2023-08-24T15:15:22;26.10;99.90
3644;DHT22;1838;50.742;7.158;2023-08-24T15:17:48;26.00;99.90
3644;DHT22;1838;50.742;7.158;2023-08-24T15:20:13;26.00;99.90
3644;DHT22;1838;50.742;7.158;2023-08-24T15:22:39;26.00;99.90
3644;DHT22;1838;50.742;7.158;2023-08-24T15:25:06;26.10;99.90
3644;DHT22;1838;50.742;7.158;2023-08-24T15:27:32;26.10;99.90
3644;DHT22;1838;50.742;7.158;2023-08-24T15:29:57;26.00;99.90
3644;DHT22;1838;50.742;7.158;2023-08-24T15:32:23;25.80;99.90
3644;DHT22;1838;50.742;7.158;2023-08-24T15:34:49;25.80;99.90
3644;DHT22;1838;50.742;7.158;2023-08-24T15:37:15;25.70;99.90
3644;DHT22;1838;50.742;7.158;2023-08-24T15:39:41;25.60;99.90
3644;DHT22;1838;50.742;7.158;2023-08-24T15:42:07;25.40;99.90
3644;DHT22;1838;50.742;7.158;2023-08-24T15:44:33;25.20;99.90
3644;DHT22;1838;50.742;7.158;2023-08-24T15:47:00;25.10;99.90
3644;DHT22;1838;50.742;7.158;2023-08-24T15:49:26;24.80;99.90
3644;DHT22;1838;50.742;7.158;2023-08-24T15:51:52;24.60;99.90
3644;DHT22;1838;50.742;7.158;2023-08-24T15:54:18;24.30;99.90
3644;DHT22;1838;50.742;7.158;2023-08-24T15:56:44;24.20;99.90
3644;DHT22;1838;50.742;7.158;2023-08-24T15:59:18;24.00;99.90
3644;DHT22;1838;50.742;7.158;2023-08-24T16:01:44;23.90;99.90
3644;DHT22;1838;50.742;7.158;2023-08-24T16:04:10;23.70;99.90